Terminal Aerodrome Forecast
Issued by NWS Wilmington, OH

Current Version | Previous Version | Graphics & Text | Print | Product List | Glossary On
Versions: 1 2 3 4 5 6 7 8 9 10 11 12 13 14 15 16 17 18
000
FTUS41 KILN 221657 AAE
TAFILN
TAF AMD
KILN 221657Z 2217/2312 24013G22KT P6SM VCTS BKN035CB
      TEMPO 2217/2219 27020G30KT 3SM TSRA OVC025CB
     FM222100 29008KT P6SM BKN035
     FM230700 33007KT P6SM SCT240=

USA.gov is the U.S. government's official web portal to all federal, state and local government web resources and services.